Nearby METAR Reports

 

KBFI - Boeing Field Seattle, WA, USA
Distance from station: SE 4mi, 7km
Updated: Wed, 10/18/2017 12:53pm PDT
Light rain, Overcast
Light rain, Overcast
 Wind from SSE
Wind: SSE 17 mph , 28 km/h
Temperature: 55°F , 13°C
Dew Point: 54°F , 12°C
Humidity: 94%
Barometer: 29.73 inHg , 1006.8 hPa
Summary: Light rain
Clouds: Overcast
Visibility: 9 miles , 14 km
Cloud details: Few Clouds 3500 ft
Mostly cloudy 4600 ft
Overcast 8500 ft
2017/10/18 19:53 KBFI 181953Z 15015KT 9SM -RA FEW035 BKN046 OVC085 13/12 A2973 RMK AO2 PK WND 17027/1932 SLP065 P0004 T01280117
KSEA - Seattle/Metro, WA, USA
Distance from station: NE 5mi, 8km
Updated: Wed, 10/18/2017 12:53pm PDT
Light rain, Overcast
Light rain, Overcast
 Wind from S
Wind: S 17 mph , 28 km/h
Temperature: 57°F , 14°C
Dew Point: 54°F , 12°C
Humidity: 88%
Barometer: 29.72 inHg , 1006.4 hPa
Summary: Light rain
Clouds: Overcast
Visibility: 7 miles , 11 km
Cloud details: Partly cloudy 3100 ft
Overcast 6000 ft
2017/10/18 19:53 KSEA 181953Z 17015KT 7SM -RA SCT031 OVC060 14/12 A2972 RMK AO2 SLP071 P0007 T01390122
 
KTIW - Tacoma, WA, USA
Distance from station: S 30mi, 45km
Updated: Wed, 10/18/2017 12:53pm PDT
Light rain, Overcast
Light rain, Overcast
 Wind from S
Wind: S 18 mph , 30 km/h, Gust: 25 mph , 41 km/h
Temperature: 55°F , 13°C
Dew Point: 55°F , 13°C
Humidity: 100%
Barometer: 29.73 inHg , 1006.8 hPa
Summary: Light rain
Clouds: Overcast
Visibility: 8 miles , 13 km
Cloud details: Partly cloudy 1500 ft
Mostly cloudy 5000 ft
Overcast 8000 ft
2017/10/18 19:53 KTIW 181953Z 18016G22KT 8SM -RA SCT015 BKN050 OVC080 13/13 A2973 RMK AO2 SLP070 P0004 T01330128
KCLM - Port Angeles, WA, USA
Distance from station: NW 70mi, 100km
Updated: Wed, 10/18/2017 12:53pm PDT
Light rain, Mist, Overcast
Light rain, Mist, Overcast
 Wind from calm
Wind: Calm
Temperature: 46°F , 8°C
Dew Point: 46°F , 8°C
Humidity: 100%
Barometer: 29.55 inHg , 1000.7 hPa
Summary: Light rain, Mist
Clouds: Overcast
Visibility: 2 miles , 3 km
Cloud details: Few Clouds 6000 ft
Mostly cloudy 7500 ft
Overcast 9500 ft
2017/10/18 19:53 KCLM 181953Z AUTO 00000KT 2SM -RA BR FEW060 BKN075 OVC095 08/08 A2955 RMK AO2 SLP007 P0013 T00830078